Time;durP1;ratioP1;P1;durP2;ratioP2;P2;SDS_P1;SDS_P2;PMS_P1;PMS_P2;Temp;Humidity;BMP_temperature;BMP_pressure;BME280_temperature;BME280_humidity;BME280_pressure;Samples;Min_cycle;Max_cycle;Signal;HPM_P1;HPM_P2
2023/03/18 00:01:33;;;;;;;;;10.00;8.50;;;;;22.52;39.84;100245.50;5093142;27;45367;-75
2023/03/18 00:03:58;;;;;;;;;9.00;8.50;;;;;22.53;39.68;100251.69;5098555;27;45441;-75
2023/03/18 00:06:24;;;;;;;;;7.25;7.25;;;;;22.51;39.49;100251.81;5093907;27;46508;-74
2023/03/18 00:08:49;;;;;;;;;9.75;7.50;;;;;22.46;39.59;100251.34;5081293;27;46930;-74
2023/03/18 00:11:17;;;;;;;;;8.75;8.75;;;;;22.44;39.60;100247.97;5094126;27;45562;-74
2023/03/18 00:13:43;;;;;;;;;9.00;8.00;;;;;22.45;39.64;100259.47;5095684;27;45456;-74
2023/03/18 00:16:10;;;;;;;;;6.00;6.00;;;;;22.49;39.87;100263.59;5095062;27;45646;-74
2023/03/18 00:18:36;;;;;;;;;8.00;7.25;;;;;22.48;39.63;100265.38;5071130;27;45750;-74
2023/03/18 00:21:02;;;;;;;;;7.00;6.75;;;;;22.49;39.66;100274.25;5086233;27;45440;-74
2023/03/18 00:23:28;;;;;;;;;10.75;7.75;;;;;22.49;39.57;100275.09;5087725;27;45591;-74
2023/03/18 00:25:55;;;;;;;;;7.75;5.25;;;;;22.47;39.60;100269.06;5100429;27;52369;-74
2023/03/18 00:28:21;;;;;;;;;10.50;8.50;;;;;22.46;39.81;100261.19;5098360;27;45732;-74
2023/03/18 00:30:48;;;;;;;;;10.25;7.25;;;;;22.48;40.00;100273.38;5082254;27;46846;-74
2023/03/18 00:33:14;;;;;;;;;10.25;7.00;;;;;22.46;39.63;100270.00;5101302;27;45317;-74
2023/03/18 00:35:39;;;;;;;;;9.75;8.00;;;;;22.44;40.13;100268.47;5088833;27;45494;-74
2023/03/18 00:38:07;;;;;;;;;8.75;7.00;;;;;22.43;39.94;100274.75;5083509;27;45431;-74
2023/03/18 00:40:51;;;;;;;;;10.50;10.00;;;;;22.42;39.92;100279.25;5107399;27;45488;-74
2023/03/18 00:43:20;;;;;;;;;9.00;8.25;;;;;22.45;39.67;100279.00;5111630;27;45249;-74
2023/03/18 00:45:47;;;;;;;;;7.75;6.75;;;;;22.45;39.45;100278.13;5079280;27;46824;-74
2023/03/18 00:48:12;;;;;;;;;6.25;6.00;;;;;22.43;39.51;100278.25;5071744;27;45981;-74
2023/03/18 00:50:37;;;;;;;;;3.75;3.75;;;;;22.40;39.60;100270.53;5109394;27;63124;-74
2023/03/18 00:53:03;;;;;;;;;9.00;6.25;;;;;22.42;39.58;100263.25;5097590;27;45512;-74
2023/03/18 00:55:28;;;;;;;;;6.75;6.75;;;;;22.43;40.03;100264.09;5106224;27;67937;-74
2023/03/18 00:57:54;;;;;;;;;15.50;13.75;;;;;22.39;39.93;100247.50;5107158;27;57524;-74
2023/03/18 01:00:20;;;;;;;;;8.50;7.75;;;;;22.40;39.32;100253.69;5098582;27;45677;-74
2023/03/18 01:02:48;;;;;;;;;8.25;8.00;;;;;22.41;39.39;100258.88;5085002;27;45560;-74
2023/03/18 01:05:14;;;;;;;;;6.50;6.50;;;;;22.37;39.53;100252.97;5099230;27;45617;-75
2023/03/18 01:07:40;;;;;;;;;8.50;7.50;;;;;22.36;39.81;100242.44;5083376;27;45438;-74
2023/03/18 01:10:06;;;;;;;;;6.00;6.00;;;;;22.40;39.34;100253.69;5079824;27;45478;-74
2023/03/18 01:12:32;;;;;;;;;9.00;7.50;;;;;22.40;39.31;100261.69;5096260;27;45505;-74
2023/03/18 01:14:58;;;;;;;;;11.50;8.00;;;;;22.35;39.75;100248.75;5103358;27;45481;-74
2023/03/18 01:17:24;;;;;;;;;11.00;8.00;;;;;22.36;39.66;100261.97;5107773;27;45542;-74
2023/03/18 01:19:50;;;;;;;;;10.00;8.25;;;;;22.35;39.90;100256.75;5093694;27;45547;-74
2023/03/18 01:22:15;;;;;;;;;9.25;7.00;;;;;22.37;39.80;100268.13;5091699;27;45544;-75
2023/03/18 01:24:41;;;;;;;;;6.50;6.50;;;;;22.34;39.10;100263.03;5107508;27;67275;-75
2023/03/18 01:27:06;;;;;;;;;9.75;7.50;;;;;22.32;39.54;100257.84;5095856;27;45197;-74
2023/03/18 01:29:32;;;;;;;;;7.75;6.75;;;;;22.33;39.33;100259.53;5096582;27;45458;-75
2023/03/18 01:31:59;;;;;;;;;5.75;5.75;;;;;22.32;39.22;100241.84;5101688;27;45336;-74
2023/03/18 01:34:25;;;;;;;;;6.50;5.00;;;;;22.34;39.63;100244.38;5121137;27;45292;-74
2023/03/18 01:36:54;;;;;;;;;5.50;1.75;;;;;22.30;39.78;100232.31;5098280;27;45463;-75
2023/03/18 01:39:20;;;;;;;;;7.25;5.50;;;;;22.31;39.21;100239.31;5059476;27;45472;-74
2023/03/18 01:41:46;;;;;;;;;6.75;5.50;;;;;22.30;39.43;100233.13;5086943;27;45320;-73
2023/03/18 01:44:19;;;;;;;;;7.75;6.25;;;;;22.32;39.38;100239.19;5116689;27;45661;-75
2023/03/18 01:46:46;;;;;;;;;6.50;6.50;;;;;22.32;39.24;100238.34;5064678;27;46056;-75
2023/03/18 01:49:16;;;;;;;;;6.00;5.25;;;;;22.31;39.18;100231.31;5088954;27;45700;-75
2023/03/18 01:51:46;;;;;;;;;4.75;4.75;;;;;22.29;39.47;100233.25;5093039;27;45393;-75
2023/03/18 01:54:13;;;;;;;;;5.25;4.75;;;;;22.29;39.21;100222.59;5093263;27;45986;-75
2023/03/18 01:56:40;;;;;;;;;4.00;4.00;;;;;22.23;39.11;100218.59;5082382;27;45340;-74
2023/03/18 01:59:07;;;;;;;;;8.00;7.00;;;;;22.26;39.18;100226.34;5079363;27;45494;-74
2023/03/18 02:01:52;;;;;;;;;4.00;3.75;;;;;22.28;39.70;100236.91;5104247;27;45544;-74
2023/03/18 02:04:18;;;;;;;;;6.75;6.00;;;;;22.23;39.10;100231.94;5084168;27;48061;-75
2023/03/18 02:06:43;;;;;;;;;4.25;4.00;;;;;22.26;39.69;100236.19;5094725;27;45571;-75
2023/03/18 02:09:10;;;;;;;;;6.50;6.00;;;;;22.24;39.27;100230.09;5115649;27;45501;-74
2023/03/18 02:11:38;;;;;;;;;8.25;4.50;;;;;22.25;39.32;100239.81;5096932;27;45344;-75
2023/03/18 02:14:06;;;;;;;;;7.00;7.00;;;;;22.19;39.41;100227.84;5085501;27;48244;-75
2023/03/18 02:16:43;;;;;;;;;10.75;7.25;;;;;22.21;39.47;100228.56;5095013;27;45516;-75
2023/03/18 02:19:32;;;;;;;;;5.00;5.00;;;;;22.23;39.47;100228.44;5112514;27;45366;-75
2023/03/18 02:22:09;;;;;;;;;5.00;5.00;;;;;22.23;39.61;100234.59;5091138;27;45857;-74
2023/03/18 02:25:04;;;;;;;;;5.75;5.00;;;;;22.22;39.57;100240.88;5109631;27;45575;-75
2023/03/18 02:27:32;;;;;;;;;7.50;5.25;;;;;22.20;39.36;100245.50;5081152;27;45320;-75
2023/03/18 02:30:03;;;;;;;;;5.00;4.75;;;;;22.18;38.99;100244.81;5083159;27;45372;-74
2023/03/18 02:32:30;;;;;;;;;5.00;5.00;;;;;22.20;39.12;100256.16;5091703;27;45652;-74
2023/03/18 02:34:58;;;;;;;;;8.75;4.75;;;;;22.21;39.28;100243.72;5097547;27;48107;-74
2023/03/18 02:37:23;;;;;;;;;11.00;7.50;;;;;22.20;39.38;100240.19;5093609;27;47052;-74
2023/03/18 02:39:48;;;;;;;;;9.75;7.00;;;;;22.18;39.27;100226.97;5101187;27;64457;-75
2023/03/18 02:42:15;;;;;;;;;6.75;4.75;;;;;22.17;39.43;100227.97;5107396;27;57282;-75
2023/03/18 02:44:44;;;;;;;;;8.25;6.00;;;;;22.18;39.00;100234.13;5100678;27;45341;-74
2023/03/18 02:47:14;;;;;;;;;6.75;6.25;;;;;22.15;39.09;100240.59;5094275;27;45516;-74
2023/03/18 02:49:40;;;;;;;;;8.00;6.00;;;;;22.14;39.10;100238.88;5074432;27;45372;-74
2023/03/18 02:52:05;;;;;;;;;8.25;6.00;;;;;22.15;38.86;100255.69;5111662;27;45457;-75
2023/03/18 02:54:31;;;;;;;;;6.00;4.75;;;;;22.16;39.47;100255.59;5112025;27;45287;-74
2023/03/18 02:56:57;;;;;;;;;6.00;4.00;;;;;22.16;39.30;100252.09;5106533;27;45502;-74
2023/03/18 02:59:23;;;;;;;;;8.50;6.00;;;;;22.13;39.40;100244.34;5092443;27;45419;-74
2023/03/18 03:01:50;;;;;;;;;5.00;5.00;;;;;22.16;39.17;100246.75;5108976;27;45279;-74
2023/03/18 03:04:16;;;;;;;;;5.50;4.75;;;;;22.13;38.90;100245.19;5084772;27;47635;-74
2023/03/18 03:06:43;;;;;;;;;5.50;5.00;;;;;22.15;39.29;100248.59;5094841;27;45433;-74
2023/03/18 03:09:10;;;;;;;;;5.75;3.50;;;;;22.14;38.95;100246.88;5082679;27;45492;-73
2023/03/18 03:11:36;;;;;;;;;5.00;5.00;;;;;22.14;39.33;100254.03;5096043;27;45248;-73
2023/03/18 03:14:02;;;;;;;;;5.00;3.75;;;;;22.13;39.03;100255.00;5095682;27;46229;-73
2023/03/18 03:16:28;;;;;;;;;5.00;5.00;;;;;22.13;39.30;100261.19;5085654;27;45797;-74
2023/03/18 03:18:54;;;;;;;;;7.25;6.00;;;;;22.13;39.23;100263.00;5079437;27;45214;-74
2023/03/18 03:21:19;;;;;;;;;4.00;4.00;;;;;22.13;39.21;100265.66;5088885;27;72120;-74
2023/03/18 03:23:46;;;;;;;;;5.25;4.00;;;;;22.12;39.33;100264.81;5088556;27;62206;-74
2023/03/18 03:26:12;;;;;;;;;6.25;6.25;;;;;22.12;39.47;100263.97;5109240;27;45372;-74
2023/03/18 03:28:37;;;;;;;;;9.50;8.75;;;;;22.09;39.20;100265.06;5112747;27;45422;-74
2023/03/18 03:31:03;;;;;;;;;8.00;5.50;;;;;22.11;39.05;100264.94;5083198;27;45299;-76
2023/03/18 03:33:28;;;;;;;;;6.75;6.00;;;;;22.11;39.47;100267.59;5089765;27;46076;-75
2023/03/18 03:35:54;;;;;;;;;6.00;5.75;;;;;22.10;38.85;100263.28;5083434;27;70699;-76
2023/03/18 03:38:20;;;;;;;;;5.75;5.75;;;;;22.10;38.95;100257.94;5111868;27;45724;-76
2023/03/18 03:40:46;;;;;;;;;6.50;5.00;;;;;22.09;39.32;100259.72;5084645;27;70232;-76
2023/03/18 03:43:13;;;;;;;;;5.25;5.25;;;;;22.09;38.86;100261.56;5086751;27;47691;-76
2023/03/18 03:45:39;;;;;;;;;6.00;4.00;;;;;22.10;38.80;100264.09;5088951;27;45750;-76
2023/03/18 03:48:05;;;;;;;;;6.00;3.00;;;;;22.08;38.81;100270.50;5083390;27;45364;-76
2023/03/18 03:50:30;;;;;;;;;5.50;3.75;;;;;22.07;39.05;100272.34;5091137;27;45259;-75
2023/03/18 03:52:57;;;;;;;;;8.00;5.00;;;;;22.08;38.89;100273.19;5118794;27;68223;-76
2023/03/18 03:55:22;;;;;;;;;5.00;4.00;;;;;22.08;38.75;100275.84;5086953;27;45390;-75
2023/03/18 03:57:48;;;;;;;;;9.50;6.50;;;;;22.05;38.81;100268.13;5082822;27;45463;-75
2023/03/18 04:00:17;;;;;;;;;5.00;4.00;;;;;22.04;39.24;100272.59;5086323;27;45335;-75
2023/03/18 04:02:43;;;;;;;;;5.00;4.00;;;;;22.04;39.24;100269.91;5099446;27;45968;-76
2023/03/18 04:05:10;;;;;;;;;4.00;4.00;;;;;22.07;38.89;100279.50;5112874;27;46054;-75
2023/03/18 04:07:36;;;;;;;;;3.25;3.00;;;;;22.04;39.19;100274.41;5079358;27;45479;-75
2023/03/18 04:10:02;;;;;;;;;4.75;4.75;;;;;22.00;38.71;100274.66;5092487;27;45478;-75
2023/03/18 04:12:28;;;;;;;;;6.75;5.50;;;;;22.03;38.98;100270.91;5089089;27;45644;-75
2023/03/18 04:14:53;;;;;;;;;5.00;4.00;;;;;22.05;39.44;100279.63;5106688;27;45452;-74
2023/03/18 04:17:19;;;;;;;;;4.75;4.25;;;;;22.01;38.72;100275.53;5108870;27;45538;-74
2023/03/18 04:19:44;;;;;;;;;5.00;3.00;;;;;22.02;39.23;100271.88;5092446;27;45590;-75
2023/03/18 04:22:10;;;;;;;;;4.00;4.00;;;;;22.02;38.94;100277.19;5109826;27;56374;-75
2023/03/18 04:24:36;;;;;;;;;3.75;3.25;;;;;22.04;38.74;100283.25;5100963;27;45493;-74
2023/03/18 04:27:01;;;;;;;;;16.25;14.75;;;;;22.03;38.77;100278.91;5101267;27;45311;-75
2023/03/18 04:29:27;;;;;;;;;6.25;4.25;;;;;22.02;39.07;100279.88;5117747;27;45442;-74
2023/03/18 04:31:52;;;;;;;;;7.25;6.00;;;;;22.02;39.18;100282.53;5092806;27;71245;-75
2023/03/18 04:34:17;;;;;;;;;7.00;6.00;;;;;22.00;39.02;100279.16;5093359;27;71154;-75
2023/03/18 04:36:43;;;;;;;;;5.75;4.75;;;;;21.98;38.88;100275.78;5106586;27;66448;-74
2023/03/18 04:39:08;;;;;;;;;4.50;4.50;;;;;22.02;39.00;100279.03;5093780;27;52403;-74
2023/03/18 04:41:35;;;;;;;;;9.00;4.50;;;;;22.02;38.90;100279.88;5092245;27;46014;-74
2023/03/18 04:44:01;;;;;;;;;5.00;5.00;;;;;22.02;39.21;100279.88;5104537;27;46080;-74
2023/03/18 04:46:28;;;;;;;;;4.00;4.00;;;;;21.99;39.15;100280.97;5084105;27;45521;-74
2023/03/18 04:48:54;;;;;;;;;4.00;4.00;;;;;22.00;39.16;100284.47;5100836;27;45822;-74
2023/03/18 04:51:20;;;;;;;;;6.50;4.50;;;;;21.99;39.01;100280.13;5074943;27;46170;-74
2023/03/18 04:53:45;;;;;;;;;4.25;4.00;;;;;22.00;39.26;100282.66;5111646;27;45311;-74
2023/03/18 04:56:11;;;;;;;;;4.00;3.25;;;;;21.98;39.08;100281.94;5077974;27;64832;-75
2023/03/18 04:58:36;;;;;;;;;5.75;5.00;;;;;22.00;39.27;100287.16;5115306;27;45264;-75
2023/03/18 05:01:03;;;;;;;;;5.00;3.00;;;;;21.99;38.85;100280.13;5121024;27;60447;-75
2023/03/18 05:03:28;;;;;;;;;3.50;3.50;;;;;21.98;39.07;100289.94;5098653;27;45351;-75
2023/03/18 05:05:54;;;;;;;;;2.75;2.50;;;;;21.99;38.84;100290.78;5074640;27;45268;-75
2023/03/18 05:08:20;;;;;;;;;4.25;3.00;;;;;21.95;38.81;100281.34;5077988;27;45249;-75
2023/03/18 05:10:46;;;;;;;;;3.00;3.00;;;;;21.98;39.28;100284.59;5118422;27;46071;-74
2023/03/18 05:13:11;;;;;;;;;4.75;3.00;;;;;21.91;39.50;100261.28;5107346;27;45867;-74
2023/03/18 05:15:37;;;;;;;;;4.25;4.25;;;;;21.97;39.03;100272.28;5112176;27;45540;-74
2023/03/18 05:18:03;;;;;;;;;4.50;3.50;;;;;21.97;39.33;100269.59;5090735;27;45438;-75
2023/03/18 05:20:29;;;;;;;;;5.00;3.25;;;;;21.96;39.27;100264.41;5095168;27;45449;-74
2023/03/18 05:22:54;;;;;;;;;3.00;3.00;;;;;21.93;38.88;100268.16;5082255;27;45483;-74
2023/03/18 05:25:20;;;;;;;;;3.50;3.50;;;;;21.98;39.47;100273.13;5099773;27;65405;-74
2023/03/18 05:27:46;;;;;;;;;3.00;2.25;;;;;21.96;39.36;100270.56;5095945;27;45450;-74
2023/03/18 05:30:14;;;;;;;;;3.00;3.00;;;;;21.96;39.03;100270.56;5095652;27;45532;-73
2023/03/18 05:32:40;;;;;;;;;3.50;3.00;;;;;21.96;39.35;100281.22;5110105;27;45923;-73
2023/03/18 05:35:06;;;;;;;;;4.75;3.25;;;;;21.93;39.42;100269.97;5090617;27;45391;-73
2023/03/18 05:37:31;;;;;;;;;3.00;3.00;;;;;21.94;39.19;100267.19;5083456;27;45633;-74
2023/03/18 05:39:56;;;;;;;;;2.50;2.50;;;;;21.95;39.48;100268.03;5099098;27;70736;-73
2023/03/18 05:42:22;;;;;;;;;3.00;3.00;;;;;21.94;39.34;100261.84;5070460;27;45517;-74
2023/03/18 05:44:48;;;;;;;;;3.00;3.00;;;;;21.92;38.77;100265.59;5096880;27;45322;-76
2023/03/18 05:47:14;;;;;;;;;5.00;3.00;;;;;21.92;38.97;100263.81;5116736;27;45357;-76
2023/03/18 05:49:39;;;;;;;;;4.75;3.00;;;;;21.95;39.09;100268.03;5099399;27;45493;-76
2023/03/18 05:52:05;;;;;;;;;3.00;3.00;;;;;21.92;39.24;100258.47;5096461;27;45517;-76
2023/03/18 05:54:30;;;;;;;;;3.50;3.00;;;;;21.89;39.33;100263.22;5084611;27;70222;-75
2023/03/18 05:56:57;;;;;;;;;3.25;1.00;;;;;21.92;38.95;100257.63;5082560;27;45707;-73
2023/03/18 05:59:23;;;;;;;;;2.25;2.25;;;;;21.91;39.40;100266.59;5082145;27;47312;-73
2023/03/18 06:01:48;;;;;;;;;3.50;2.50;;;;;21.92;38.90;100263.81;5083162;27;45426;-74
2023/03/18 06:04:16;;;;;;;;;4.25;3.25;;;;;21.93;39.43;100267.31;5082063;27;51439;-75
2023/03/18 06:06:42;;;;;;;;;4.00;4.00;;;;;21.92;39.28;100268.28;5093137;27;45536;-75
2023/03/18 06:09:08;;;;;;;;;3.00;3.00;;;;;21.92;39.46;100271.81;5082596;27;47100;-74
2023/03/18 06:11:34;;;;;;;;;4.25;3.50;;;;;21.90;39.30;100270.22;5079474;27;45350;-74
2023/03/18 06:13:59;;;;;;;;;3.75;3.75;;;;;21.90;39.08;100275.53;5111727;27;45435;-75
2023/03/18 06:16:25;;;;;;;;;4.25;4.25;;;;;21.92;39.13;100276.25;5116086;27;54167;-74
2023/03/18 06:18:50;;;;;;;;;4.25;4.00;;;;;21.91;39.51;100279.91;5080111;27;47051;-75
2023/03/18 06:21:16;;;;;;;;;3.25;2.25;;;;;21.88;39.36;100273.00;5106460;27;47219;-74
2023/03/18 06:23:41;;;;;;;;;3.75;3.00;;;;;21.91;39.43;100272.75;5097639;27;45347;-73
2023/03/18 06:26:07;;;;;;;;;4.00;3.00;;;;;21.89;39.46;100272.03;5090191;27;45625;-74
2023/03/18 06:28:33;;;;;;;;;4.00;2.25;;;;;21.90;39.38;100271.09;5079982;27;47441;-74
2023/03/18 06:30:58;;;;;;;;;3.00;3.00;;;;;21.92;39.03;100281.59;5096468;27;46088;-74
2023/03/18 06:33:24;;;;;;;;;3.00;3.00;;;;;21.88;39.31;100278.34;5083426;27;69977;-73
2023/03/18 06:35:56;;;;;;;;;2.75;2.00;;;;;21.91;39.07;100283.41;5085433;27;45276;-73
2023/03/18 06:38:22;;;;;;;;;2.00;2.00;;;;;21.89;39.30;100277.38;5102750;27;46021;-73
2023/03/18 06:40:47;;;;;;;;;5.00;3.00;;;;;21.90;39.44;100283.53;5093949;27;63671;-74
2023/03/18 06:43:13;;;;;;;;;3.00;3.00;;;;;21.86;39.02;100280.28;5100726;27;45257;-75
2023/03/18 06:45:39;;;;;;;;;3.25;2.00;;;;;21.88;38.94;100289.00;5096889;27;45441;-75
2023/03/18 06:48:05;;;;;;;;;2.00;2.00;;;;;21.88;38.95;100296.16;5093956;27;45489;-75
2023/03/18 06:50:31;;;;;;;;;2.00;2.00;;;;;21.86;39.26;100298.94;5095248;27;45451;-75
2023/03/18 06:52:57;;;;;;;;;3.00;2.00;;;;;21.84;39.26;100294.72;5111997;27;45365;-75
2023/03/18 06:55:23;;;;;;;;;2.25;2.00;;;;;21.87;39.19;100295.31;5093770;27;45441;-74
2023/03/18 06:57:48;;;;;;;;;3.00;2.75;;;;;21.88;39.03;100288.16;5092640;27;45879;-74
2023/03/18 07:00:15;;;;;;;;;1.50;1.50;;;;;21.86;39.02;100288.28;5111080;27;45684;-75
2023/03/18 07:02:40;;;;;;;;;2.75;2.75;;;;;21.85;39.20;100299.06;5084582;27;45439;-75
2023/03/18 07:05:06;;;;;;;;;1.00;1.00;;;;;21.84;39.26;100292.88;5092254;27;45481;-73
2023/03/18 07:07:32;;;;;;;;;2.50;2.25;;;;;21.85;39.29;100293.72;5089647;27;45312;-73
2023/03/18 07:09:57;;;;;;;;;3.00;1.00;;;;;21.86;39.39;100295.44;5081525;27;45412;-73
2023/03/18 07:12:23;;;;;;;;;2.75;2.75;;;;;21.86;39.37;100292.75;5092097;27;45486;-74
2023/03/18 07:14:48;;;;;;;;;2.00;2.00;;;;;21.85;39.28;100294.59;5099049;27;45263;-74
2023/03/18 07:17:14;;;;;;;;;2.00;2.00;;;;;21.87;39.35;100305.09;5092599;27;46538;-74
2023/03/18 07:19:40;;;;;;;;;2.75;1.50;;;;;21.90;39.15;100305.72;5102665;27;45387;-74
2023/03/18 07:22:06;;;;;;;;;1.25;1.25;;;;;21.92;38.97;100305.56;5110494;27;45228;-74
2023/03/18 07:24:31;;;;;;;;;2.25;1.25;;;;;21.89;38.91;100293.34;5080660;27;72318;-74
2023/03/18 07:26:56;;;;;;;;;2.50;2.00;;;;;21.94;38.92;100295.66;5086689;27;55596;-74
2023/03/18 07:29:22;;;;;;;;;2.00;2.00;;;;;21.97;39.08;100295.38;5103483;27;61930;-74
2023/03/18 07:31:50;;;;;;;;;5.25;1.50;;;;;22.00;38.87;100305.81;5098745;27;45311;-74
2023/03/18 07:34:17;;;;;;;;;2.00;2.00;;;;;22.05;38.71;100308.09;5090502;27;45250;-75
2023/03/18 07:36:43;;;;;;;;;1.00;1.00;;;;;22.07;39.17;100306.16;5098799;27;47779;-74
2023/03/18 07:39:09;;;;;;;;;2.00;2.00;;;;;22.04;38.93;100304.56;5118706;27;45357;-75
2023/03/18 07:41:35;;;;;;;;;2.00;1.00;;;;;22.14;38.62;100326.00;5100750;27;45290;-74
2023/03/18 07:44:00;;;;;;;;;1.50;1.00;;;;;22.15;38.74;100314.34;5095977;27;46721;-78
2023/03/18 07:46:26;;;;;;;;;2.00;1.50;;;;;22.21;38.71;100323.69;5101355;27;46903;-72
2023/03/18 07:48:52;;;;;;;;;5.50;1.75;;;;;22.25;38.77;100325.09;5113966;27;45369;-77
2023/03/18 07:51:17;;;;;;;;;2.50;2.50;;;;;22.27;38.77;100320.53;5091773;27;45454;-77
2023/03/18 07:53:43;;;;;;;;;2.50;2.00;;;;;22.28;38.56;100317.72;5081783;27;57286;-78
2023/03/18 07:56:09;;;;;;;;;2.50;1.00;;;;;22.31;38.85;100319.28;5092601;27;45389;-72
2023/03/18 07:58:35;;;;;;;;;1.00;1.00;;;;;22.33;38.68;100315.53;5090011;27;45482;-75
2023/03/18 08:01:01;;;;;;;;;1.25;0.00;;;;;22.36;38.39;100317.94;5105801;27;45459;-75
2023/03/18 08:03:27;;;;;;;;;1.00;1.00;;;;;22.35;38.49;100313.56;5075226;27;47099;-78
2023/03/18 08:05:52;;;;;;;;;1.00;1.00;;;;;22.36;38.29;100309.09;5089133;27;46230;-78
2023/03/18 08:08:18;;;;;;;;;3.00;1.00;;;;;22.41;38.57;100314.88;5084860;27;45471;-75
2023/03/18 08:10:43;;;;;;;;;3.00;1.00;;;;;22.33;38.07;100312.88;5092467;27;45493;-75
2023/03/18 08:13:09;;;;;;;;;1.00;1.00;;;;;22.43;38.12;100323.59;5093697;27;45449;-77
2023/03/18 08:15:35;;;;;;;;;3.00;1.00;;;;;22.39;37.67;100311.50;5087056;27;45982;-75
2023/03/18 08:18:00;;;;;;;;;0.75;0.75;;;;;22.44;38.05;100330.63;5120202;27;45253;-77
2023/03/18 08:20:26;;;;;;;;;4.00;1.00;;;;;22.45;38.02;100334.13;5089204;27;45528;-76
2023/03/18 08:22:51;;;;;;;;;2.75;1.50;;;;;22.44;37.69;100333.28;5090427;27;45517;-78
2023/03/18 08:25:17;;;;;;;;;2.25;2.25;;;;;22.43;38.02;100333.41;5084382;27;48235;-75
2023/03/18 08:27:42;;;;;;;;;3.75;2.00;;;;;22.45;38.00;100339.47;5092068;27;45405;-76
2023/03/18 08:30:12;;;;;;;;;1.25;1.25;;;;;22.44;37.62;100340.47;5095789;27;45549;-76
2023/03/18 08:32:38;;;;;;;;;1.25;1.00;;;;;22.39;37.83;100337.31;5091182;27;45258;-76
2023/03/18 08:35:04;;;;;;;;;2.00;1.25;;;;;22.46;38.00;100344.69;5101227;27;47219;-76
2023/03/18 08:37:30;;;;;;;;;2.50;1.50;;;;;22.48;37.99;100350.72;5084554;27;45230;-74
2023/03/18 08:39:55;;;;;;;;;3.50;2.00;;;;;22.46;38.18;100339.34;5087340;27;45230;-74
2023/03/18 08:42:20;;;;;;;;;5.75;2.00;;;;;22.46;38.10;100334.00;5078812;27;47190;-85
2023/03/18 08:44:46;;;;;;;;;3.00;1.00;;;;;22.47;37.85;100327.72;5084872;27;47048;-76
2023/03/18 08:47:11;;;;;;;;;4.25;2.00;;;;;22.51;37.80;100329.13;5093849;27;70207;-74
2023/03/18 08:49:40;;;;;;;;;5.25;1.75;;;;;22.51;38.21;100330.97;5066287;27;45534;-73
2023/03/18 08:52:05;;;;;;;;;3.75;2.00;;;;;22.53;38.30;100334.34;5112717;27;45473;-83
2023/03/18 08:54:31;;;;;;;;;3.25;2.00;;;;;22.50;37.93;100327.44;5086446;27;45577;-72
2023/03/18 08:56:58;;;;;;;;;4.00;2.75;;;;;22.52;38.02;100324.66;5072790;27;45521;-82
2023/03/18 08:59:23;;;;;;;;;2.00;2.00;;;;;22.53;37.92;100326.34;5082619;27;45328;-80
2023/03/18 09:01:49;;;;;;;;;3.00;2.00;;;;;22.52;37.64;100321.97;5087040;27;68428;-80
2023/03/18 09:04:14;;;;;;;;;1.75;1.75;;;;;22.51;37.46;100321.13;5096580;27;45422;-80
2023/03/18 09:06:40;;;;;;;;;3.00;2.50;;;;;22.46;37.48;100309.19;5083073;27;45235;-81
2023/03/18 09:09:07;;;;;;;;;1.00;1.00;;;;;22.51;37.60;100318.47;5077974;27;45418;-75
2023/03/18 09:11:33;;;;;;;;;5.00;3.00;;;;;22.53;37.31;100321.00;5077727;27;45575;-73
2023/03/18 09:13:59;;;;;;;;;4.50;3.25;;;;;22.51;37.89;100312.31;5069062;27;47808;-79
2023/03/18 09:16:24;;;;;;;;;4.75;3.00;;;;;22.45;37.75;100302.13;5084265;27;45437;-73
2023/03/18 09:18:49;;;;;;;;;2.00;2.00;;;;;22.57;37.89;100314.44;5094037;27;54252;-75
2023/03/18 09:21:16;;;;;;;;;5.25;3.00;;;;;22.55;37.55;100316.41;5080803;27;45521;-74
2023/03/18 09:23:42;;;;;;;;;3.00;3.00;;;;;22.58;37.47;100324.16;5079527;27;47263;-74
2023/03/18 09:26:08;;;;;;;;;3.00;2.75;;;;;22.62;37.52;100320.22;5118048;27;45479;-74
2023/03/18 09:28:34;;;;;;;;;3.00;3.00;;;;;22.64;37.70;100333.44;5092519;27;51670;-82
2023/03/18 09:31:00;;;;;;;;;7.00;4.00;;;;;22.66;37.81;100336.81;5115439;27;69590;-78
2023/03/18 09:33:25;;;;;;;;;4.75;3.75;;;;;22.67;37.84;100336.69;5090778;27;47264;-75
2023/03/18 09:35:51;;;;;;;;;6.00;3.00;;;;;22.62;37.45;100325.56;5089033;27;45324;-74
2023/03/18 09:38:21;;;;;;;;;5.50;5.00;;;;;22.69;37.43;100331.25;5082599;27;45339;-72
2023/03/18 09:41:07;;;;;;;;;8.25;7.75;;;;;22.75;37.76;100320.91;5102819;27;45616;-75
2023/03/18 09:43:43;;;;;;;;;5.25;5.25;;;;;22.79;37.26;100323.28;5074551;27;47194;-74
2023/03/18 09:46:24;;;;;;;;;6.00;4.75;;;;;22.82;37.73;100320.38;5084656;27;45379;-75
2023/03/18 09:49:04;;;;;;;;;5.75;5.00;;;;;22.84;37.85;100327.28;5093265;27;45562;-75
2023/03/18 09:51:49;;;;;;;;;3.00;3.00;;;;;22.87;37.88;100316.31;5114875;27;46097;-75
2023/03/18 09:54:22;;;;;;;;;5.75;3.75;;;;;22.93;37.95;100317.63;5103301;27;46767;-74
2023/03/18 09:56:51;;;;;;;;;3.50;3.00;;;;;22.96;37.56;100320.03;5077112;27;46284;-72
2023/03/18 09:59:39;;;;;;;;;5.00;3.00;;;;;22.97;37.40;100319.06;5081846;27;45495;-73
2023/03/18 10:02:18;;;;;;;;;4.25;3.50;;;;;23.05;37.80;100321.09;5082628;27;45562;-75
2023/03/18 10:04:47;;;;;;;;;5.00;3.00;;;;;23.08;37.83;100328.84;5094468;27;47356;-74
2023/03/18 10:07:16;;;;;;;;;3.25;3.25;;;;;23.09;37.87;100326.03;5084372;27;45797;-73
2023/03/18 10:09:53;;;;;;;;;5.50;3.00;;;;;23.10;38.03;100313.53;5089736;27;46364;-73
2023/03/18 10:12:32;;;;;;;;;3.00;3.00;;;;;23.15;38.03;100322.00;5088777;27;45805;-73
2023/03/18 10:15:03;;;;;;;;;3.75;2.25;;;;;23.17;37.57;100316.53;5086544;27;46998;-73
2023/03/18 10:17:45;;;;;;;;;2.25;2.00;;;;;23.17;37.75;100314.69;5087902;27;45551;-73
2023/03/18 10:20:18;;;;;;;;;6.00;4.00;;;;;23.20;37.85;100317.09;5088372;27;45430;-74
2023/03/18 10:23:05;;;;;;;;;6.50;3.75;;;;;23.15;37.75;100315.81;5086529;27;45627;-81
2023/03/18 10:25:46;;;;;;;;;4.50;3.25;;;;;23.22;38.04;100323.16;5090435;27;46168;-72
2023/03/18 10:28:43;;;;;;;;;4.00;3.00;;;;;23.24;37.80;100326.53;5065367;27;46215;-73
2023/03/18 10:31:32;;;;;;;;;3.00;2.75;;;;;23.25;37.93;100319.38;5076999;27;45520;-73
2023/03/18 10:34:01;;;;;;;;;4.00;3.00;;;;;23.25;37.52;100327.41;5088236;27;45811;-73
2023/03/18 10:36:44;;;;;;;;;4.25;3.00;;;;;23.26;37.70;100331.72;5083843;27;45215;-73
2023/03/18 10:39:15;;;;;;;;;6.00;4.00;;;;;23.26;37.47;100323.72;5080470;27;45969;-72
2023/03/18 10:41:43;;;;;;;;;3.75;2.25;;;;;23.27;37.68;100323.59;5078747;27;45481;-72
2023/03/18 10:44:25;;;;;;;;;2.50;2.00;;;;;23.24;37.69;100323.84;5067698;28;45535;-72
2023/03/18 10:46:59;;;;;;;;;7.00;7.00;;;;;23.26;37.26;100327.22;5075991;27;46185;-72
2023/03/18 10:49:31;;;;;;;;;8.75;4.75;;;;;23.28;37.55;100324.44;5087925;27;45815;-72
2023/03/18 10:52:05;;;;;;;;;7.50;4.75;;;;;23.27;37.60;100322.75;5076935;28;45454;-72
2023/03/18 10:54:38;;;;;;;;;7.00;5.00;;;;;23.27;37.22;100320.94;5098782;27;45473;-72
2023/03/18 10:57:03;;;;;;;;;5.25;4.50;;;;;23.21;37.69;100312.59;5082384;27;47983;-71
2023/03/18 10:59:29;;;;;;;;;7.75;3.50;;;;;23.22;37.77;100325.81;5093113;27;53448;-71
2023/03/18 11:02:11;;;;;;;;;4.00;3.00;;;;;23.24;37.27;100317.69;5081713;27;59373;-71
2023/03/18 11:04:45;;;;;;;;;5.00;3.00;;;;;23.21;37.24;100316.09;5081145;27;45528;-71
2023/03/18 11:07:17;;;;;;;;;4.75;4.00;;;;;23.25;37.56;100322.06;5079981;27;46305;-72
2023/03/18 11:09:43;;;;;;;;;11.00;4.00;;;;;23.23;37.54;100324.84;5077534;28;45720;-73
2023/03/18 11:12:17;;;;;;;;;3.25;3.00;;;;;23.25;37.07;100327.41;5096543;27;45411;-72
2023/03/18 11:14:47;;;;;;;;;5.00;3.00;;;;;23.23;37.30;100326.66;5092544;27;45604;-72
2023/03/18 11:17:35;;;;;;;;;4.50;3.00;;;;;23.27;37.22;100317.41;5086184;27;46049;-72
2023/03/18 11:20:06;;;;;;;;;5.50;3.00;;;;;23.27;37.36;100323.59;5085898;27;45755;-72
2023/03/18 11:22:33;;;;;;;;;8.25;3.00;;;;;23.26;37.52;100326.41;5085608;27;45265;-72
2023/03/18 11:25:19;;;;;;;;;5.25;4.00;;;;;23.29;37.54;100331.47;5060879;27;45224;-72
2023/03/18 11:28:05;;;;;;;;;6.75;4.00;;;;;23.28;37.12;100325.31;5076008;28;46162;-72